Genoa, West Virginia
Current Conditions -  °F | °C
As of 11:14 PM on Sunday 25 Jan 2015 (Local Time) from KHTS Reporting Station
Moderate Rain Moderate Rain  
Wind Chill: 36°   Ceiling: 3300
Heat Index: 39°   Visibility: 3mi
Dew Point: 39°   Wind: 5mph
Humidity: 100%   Direction: 80°E
Pressure: 29.67"   Gusts: NA
Location:  38.12°N, 82.46°W
Report Text: KHTS 260414Z 08004KT 3SM RA BR OVC033 04/04 A2967 RMK AO2 P0002 T00390039
Loading
Personal Weather Stations






























Interactive Weather Map New forecast layout! Learn more

10-Day Weather Forecast

Advertisements
Track Severe Weather on mobile